^^
Station Historical Data
Daily Summary for August 27, 2017 Units:  Both    English   Metric
« Previous Day
Next Day »
Daily Weekly Monthly Yearly Custom
  High: Low: Average:
Temperature: TemperatureF °F /  -17.8 °C 45.3 °F /  7.4 °C 65 °F /  18.3 °C
Dew Point: DewpointF °F /  -17.8 °C 6.8 °F /  -14 °C 12.8 °F /  -10.7 °C
Humidity: Humidity% 6% 14%
Wind Speed: WindSpeedMPHmph /  0km/h - 1mph /  1.6km/h
Wind Gust: WindSpeedGustMPHmph /  0km/h - -
Wind- - SSW
Pressure: PressureIn in /  0 hPa 29.87 in /  1011.4 hPa -
Precipitation: 0.00 in /  0 mm    
Historical Graphs
 
 
Tabular Data for August 27, 2017
Time Temperature Dew Point Pressure Wind Wind Speed Wind Gust Humidity Rainfall Rate (Hourly) solar Conditions
TemperatureF °F /  -17.8 °C DewpointF °F /  -17.8 °C PressureInin /  0hPa Calm     Humidity% HourlyPrecipInin /  0mm SolarRadiationWatts/m^2 W/m2 Conditions
00:00 57.0 °F /  13.9 °C 11.3 °F /  -11.5 °C 29.96in /  1014.4hPa Calm   1.0mph /  1.6km/h 16% 0.00in /  0mm 0.0 W/m2
00:06 57.2 °F /  14 °C 11.5 °F /  -11.4 °C 29.96in /  1014.4hPa Calm     16% 0.00in /  0mm 0.0 W/m2
00:12 57.0 °F /  13.9 °C 11.3 °F /  -11.5 °C 29.96in /  1014.4hPa Calm     16% 0.00in /  0mm 0.0 W/m2
00:18 56.5 °F /  13.6 °C 10.8 °F /  -11.8 °C 29.96in /  1014.4hPa Calm   1.0mph /  1.6km/h 16% 0.00in /  0mm 0.0 W/m2
00:24 55.9 °F /  13.3 °C 10.4 °F /  -12 °C 29.96in /  1014.4hPa Calm   1.0mph /  1.6km/h 16% 0.00in /  0mm 0.0 W/m2
00:30 55.4 °F /  13 °C 8.4 °F /  -13.1 °C 29.96in /  1014.4hPa Calm   1.0mph /  1.6km/h 15% 0.00in /  0mm 0.0 W/m2
00:37 54.9 °F /  12.7 °C 9.5 °F /  -12.5 °C 29.96in /  1014.4hPa Calm   3.0mph /  4.8km/h 16% 0.00in /  0mm 0.0 W/m2
00:43 54.3 °F /  12.4 °C 9.1 °F /  -12.7 °C 29.96in /  1014.4hPa Calm   1.0mph /  1.6km/h 16% 0.00in /  0mm 0.0 W/m2
00:49 54.1 °F /  12.3 °C 10.2 °F /  -12.1 °C 29.96in /  1014.4hPa Calm   1.0mph /  1.6km/h 17% 0.00in /  0mm 0.0 W/m2
00:55 53.8 °F /  12.1 °C 10.0 °F /  -12.2 °C 29.96in /  1014.4hPa Calm     17% 0.00in /  0mm 0.0 W/m2
01:01 53.4 °F /  11.9 °C 9.7 °F /  -12.4 °C 29.96in /  1014.4hPa Calm   1.0mph /  1.6km/h 17% 0.00in /  0mm 0.0 W/m2
01:07 52.9 °F /  11.6 °C 10.6 °F /  -11.9 °C 29.96in /  1014.4hPa Calm     18% 0.00in /  0mm 0.0 W/m2
01:13 52.3 °F /  11.3 °C 11.3 °F /  -11.5 °C 29.96in /  1014.4hPa Calm     19% 0.00in /  0mm 0.0 W/m2
01:20 51.6 °F /  10.9 °C 10.8 °F /  -11.8 °C 29.96in /  1014.4hPa Calm     19% 0.00in /  0mm 0.0 W/m2
01:26 51.3 °F /  10.7 °C 11.5 °F /  -11.4 °C 29.96in /  1014.4hPa Calm     20% 0.00in /  0mm 0.0 W/m2
01:32 50.9 °F /  10.5 °C 10.0 °F /  -12.2 °C 29.95in /  1014.1hPa ENE 2.9mph /  4.7km/h 4.0mph /  6.4km/h 19% 0.00in /  0mm 0.0 W/m2
01:38 50.7 °F /  10.4 °C 9.9 °F /  -12.3 °C 29.95in /  1014.1hPa ESE 0.9mph /  1.4km/h 6.0mph /  9.7km/h 19% 0.00in /  0mm 0.0 W/m2
01:44 50.7 °F /  10.4 °C 9.9 °F /  -12.3 °C 29.95in /  1014.1hPa ENE 0.9mph /  1.4km/h 3.0mph /  4.8km/h 19% 0.00in /  0mm 0.0 W/m2
01:50 51.1 °F /  10.6 °C 10.2 °F /  -12.1 °C 29.95in /  1014.1hPa Calm     19% 0.00in /  0mm 0.0 W/m2
01:57 51.3 °F /  10.7 °C 11.5 °F /  -11.4 °C 29.95in /  1014.1hPa Calm   1.0mph /  1.6km/h 20% 0.00in /  0mm 0.0 W/m2
02:03 51.1 °F /  10.6 °C 10.2 °F /  -12.1 °C 29.95in /  1014.1hPa Calm     19% 0.00in /  0mm 0.0 W/m2
02:09 50.9 °F /  10.5 °C 11.3 °F /  -11.5 °C 29.95in /  1014.1hPa ESE 0.9mph /  1.4km/h 1.0mph /  1.6km/h 20% 0.00in /  0mm 0.0 W/m2
02:15 50.5 °F /  10.3 °C 10.9 °F /  -11.7 °C 29.95in /  1014.1hPa Calm   1.0mph /  1.6km/h 20% 0.00in /  0mm 0.0 W/m2
02:21 50.4 °F /  10.2 °C 10.8 °F /  -11.8 °C 29.95in /  1014.1hPa Calm   1.0mph /  1.6km/h 20% 0.00in /  0mm 0.0 W/m2
02:27 50.2 °F /  10.1 °C 10.6 °F /  -11.9 °C 29.95in /  1014.1hPa Calm   1.0mph /  1.6km/h 20% 0.00in /  0mm 0.0 W/m2
02:33 49.8 °F /  9.9 °C 10.4 °F /  -12 °C 29.95in /  1014.1hPa Calm     20% 0.00in /  0mm 0.0 W/m2
02:39 49.3 °F /  9.6 °C 9.9 °F /  -12.3 °C 29.95in /  1014.1hPa Calm   1.0mph /  1.6km/h 20% 0.00in /  0mm 0.0 W/m2
02:46 48.7 °F /  9.3 °C 10.6 °F /  -11.9 °C 29.95in /  1014.1hPa Calm   2.0mph /  3.2km/h 21% 0.00in /  0mm 0.0 W/m2
02:52 48.6 °F /  9.2 °C 10.4 °F /  -12 °C 29.95in /  1014.1hPa Calm     21% 0.00in /  0mm 0.0 W/m2
02:58 48.2 °F /  9 °C 11.1 °F /  -11.6 °C 29.95in /  1014.1hPa Calm     22% 0.00in /  0mm 0.0 W/m2
03:04 47.8 °F /  8.8 °C 10.8 °F /  -11.8 °C 29.94in /  1013.8hPa Calm   1.0mph /  1.6km/h 22% 0.00in /  0mm 0.0 W/m2
03:10 47.7 °F /  8.7 °C 10.6 °F /  -11.9 °C 29.95in /  1014.1hPa Calm     22% 0.00in /  0mm 0.0 W/m2
03:16 47.7 °F /  8.7 °C 11.7 °F /  -11.3 °C 29.95in /  1014.1hPa ENE 0.9mph /  1.4km/h 1.0mph /  1.6km/h 23% 0.00in /  0mm 0.0 W/m2
03:22 47.7 °F /  8.7 °C 10.6 °F /  -11.9 °C 29.95in /  1014.1hPa East 0.9mph /  1.4km/h 2.0mph /  3.2km/h 22% 0.00in /  0mm 0.0 W/m2
03:28 47.8 °F /  8.8 °C 9.9 °F /  -12.3 °C 29.95in /  1014.1hPa Calm   2.0mph /  3.2km/h 21% 0.00in /  0mm 0.0 W/m2
03:35 48.0 °F /  8.9 °C 9.9 °F /  -12.3 °C 29.95in /  1014.1hPa Calm   1.0mph /  1.6km/h 21% 0.00in /  0mm 0.0 W/m2
03:41 48.0 °F /  8.9 °C 9.9 °F /  -12.3 °C 29.94in /  1013.8hPa SSE 2.0mph /  3.2km/h 2.0mph /  3.2km/h 21% 0.00in /  0mm 0.0 W/m2
03:47 47.7 °F /  8.7 °C 9.7 °F /  -12.4 °C 29.94in /  1013.8hPa Calm     21% 0.00in /  0mm 0.0 W/m2
03:53 47.5 °F /  8.6 °C 10.6 °F /  -11.9 °C 29.95in /  1014.1hPa Calm   1.0mph /  1.6km/h 22% 0.00in /  0mm 0.0 W/m2
03:59 47.1 °F /  8.4 °C 10.2 °F /  -12.1 °C 29.95in /  1014.1hPa Calm   1.0mph /  1.6km/h 22% 0.00in /  0mm 0.0 W/m2
04:05 46.9 °F /  8.3 °C 10.0 °F /  -12.2 °C 29.95in /  1014.1hPa Calm   1.0mph /  1.6km/h 22% 0.00in /  0mm 0.0 W/m2
04:11 46.8 °F /  8.2 °C 9.9 °F /  -12.3 °C 29.95in /  1014.1hPa Calm   1.0mph /  1.6km/h 22% 0.00in /  0mm 0.0 W/m2
04:17 46.6 °F /  8.1 °C 10.8 °F /  -11.8 °C 29.95in /  1014.1hPa Calm   3.0mph /  4.8km/h 23% 0.00in /  0mm 0.0 W/m2
04:24 46.6 °F /  8.1 °C 10.8 °F /  -11.8 °C 29.95in /  1014.1hPa East 0.9mph /  1.4km/h 2.0mph /  3.2km/h 23% 0.00in /  0mm 0.0 W/m2
04:30 46.6 °F /  8.1 °C 10.8 °F /  -11.8 °C 29.95in /  1014.1hPa Calm   1.0mph /  1.6km/h 23% 0.00in /  0mm 0.0 W/m2
04:36 46.6 °F /  8.1 °C 10.8 °F /  -11.8 °C 29.95in /  1014.1hPa Calm   1.0mph /  1.6km/h 23% 0.00in /  0mm 0.0 W/m2
04:42 46.2 °F /  7.9 °C 10.4 °F /  -12 °C 29.95in /  1014.1hPa Calm   1.0mph /  1.6km/h 23% 0.00in /  0mm 0.0 W/m2
04:48 46.2 °F /  7.9 °C 10.4 °F /  -12 °C 29.95in /  1014.1hPa SSW 2.9mph /  4.7km/h 3.0mph /  4.8km/h 23% 0.00in /  0mm 0.0 W/m2
04:54 46.2 °F /  7.9 °C 10.4 °F /  -12 °C 29.95in /  1014.1hPa Calm   2.0mph /  3.2km/h 23% 0.00in /  0mm 0.0 W/m2
05:01 46.2 °F /  7.9 °C 11.5 °F /  -11.4 °C 29.95in /  1014.1hPa Calm   2.0mph /  3.2km/h 24% 0.00in /  0mm 0.0 W/m2
05:07 46.2 °F /  7.9 °C 10.4 °F /  -12 °C 29.95in /  1014.1hPa South 0.9mph /  1.4km/h 2.0mph /  3.2km/h 23% 0.00in /  0mm 0.0 W/m2
05:13 46.0 °F /  7.8 °C 11.3 °F /  -11.5 °C 29.95in /  1014.1hPa Calm   1.0mph /  1.6km/h 24% 0.00in /  0mm 0.0 W/m2
05:19 46.0 °F /  7.8 °C 10.2 °F /  -12.1 °C 29.95in /  1014.1hPa Calm   1.0mph /  1.6km/h 23% 0.00in /  0mm 0.0 W/m2
05:25 45.9 °F /  7.7 °C 11.1 °F /  -11.6 °C 29.95in /  1014.1hPa Calm     24% 0.00in /  0mm 0.0 W/m2
05:31 45.7 °F /  7.6 °C 10.9 °F /  -11.7 °C 29.95in /  1014.1hPa ESE 0.9mph /  1.4km/h 1.0mph /  1.6km/h 24% 0.00in /  0mm 0.0 W/m2
05:37 45.3 °F /  7.4 °C 11.5 °F /  -11.4 °C 29.95in /  1014.1hPa ESE 2.0mph /  3.2km/h 2.0mph /  3.2km/h 25% 0.00in /  0mm 0.0 W/m2
05:50 45.7 °F /  7.6 °C 10.9 °F /  -11.7 °C 29.96in /  1014.4hPa Calm   1.0mph /  1.6km/h 24% 0.00in /  0mm 0.0 W/m2
05:56 45.9 °F /  7.7 °C 10.2 °F /  -12.1 °C 29.96in /  1014.4hPa Calm   3.0mph /  4.8km/h 23% 0.00in /  0mm 0.0 W/m2
06:02 46.2 °F /  7.9 °C 10.4 °F /  -12 °C 29.96in /  1014.4hPa Calm   4.0mph /  6.4km/h 23% 0.00in /  0mm 0.0 W/m2
06:08 46.4 °F /  8 °C 10.6 °F /  -11.9 °C 29.96in /  1014.4hPa Calm   1.0mph /  1.6km/h 23% 0.00in /  0mm 0.0 W/m2
06:14 46.2 °F /  7.9 °C 11.5 °F /  -11.4 °C 29.96in /  1014.4hPa Calm     24% 0.00in /  0mm 7.0 W/m2
06:20 46.0 °F /  7.8 °C 11.3 °F /  -11.5 °C 29.96in /  1014.4hPa Calm   2.0mph /  3.2km/h 24% 0.00in /  0mm 11.0 W/m2
06:27 45.9 °F /  7.7 °C 11.1 °F /  -11.6 °C 29.96in /  1014.4hPa Calm   1.0mph /  1.6km/h 24% 0.00in /  0mm 12.0 W/m2
06:33 45.5 °F /  7.5 °C 11.7 °F /  -11.3 °C 29.96in /  1014.4hPa SE 2.0mph /  3.2km/h 3.0mph /  4.8km/h 25% 0.00in /  0mm 14.0 W/m2
06:39 45.3 °F /  7.4 °C 11.5 °F /  -11.4 °C 29.96in /  1014.4hPa SE 0.9mph /  1.4km/h 2.0mph /  3.2km/h 25% 0.00in /  0mm 18.0 W/m2
06:45 45.7 °F /  7.6 °C 10.9 °F /  -11.7 °C 29.97in /  1014.8hPa East 0.9mph /  1.4km/h 1.0mph /  1.6km/h 24% 0.00in /  0mm 19.0 W/m2
06:51 45.7 °F /  7.6 °C 11.8 °F /  -11.2 °C 29.97in /  1014.8hPa Calm     25% 0.00in /  0mm 21.0 W/m2
06:57 46.0 °F /  7.8 °C 12.2 °F /  -11 °C 29.97in /  1014.8hPa Calm   2.0mph /  3.2km/h 25% 0.00in /  0mm 23.0 W/m2
07:04 46.6 °F /  8.1 °C 12.6 °F /  -10.8 °C 29.97in /  1014.8hPa East 0.9mph /  1.4km/h 2.0mph /  3.2km/h 25% 0.00in /  0mm 25.0 W/m2
07:10 46.9 °F /  8.3 °C 12.9 °F /  -10.6 °C 29.98in /  1015.1hPa Calm   1.0mph /  1.6km/h 25% 0.00in /  0mm 26.0 W/m2
07:16 48.4 °F /  9.1 °C 14.2 °F /  -9.9 °C 29.98in /  1015.1hPa Calm   1.0mph /  1.6km/h 25% 0.00in /  0mm 26.0 W/m2
07:22 49.3 °F /  9.6 °C 14.0 °F /  -10 °C 29.98in /  1015.1hPa Calm   2.0mph /  3.2km/h 24% 0.00in /  0mm 28.0 W/m2
07:28 50.5 °F /  10.3 °C 14.2 °F /  -9.9 °C 29.98in /  1015.1hPa Calm   2.0mph /  3.2km/h 23% 0.00in /  0mm 32.0 W/m2
07:34 52.2 °F /  11.2 °C 13.5 °F /  -10.3 °C 29.98in /  1015.1hPa NE 0.9mph /  1.4km/h 2.0mph /  3.2km/h 21% 0.00in /  0mm 32.0 W/m2
07:40 53.4 °F /  11.9 °C 13.3 °F /  -10.4 °C 29.98in /  1015.1hPa East 2.0mph /  3.2km/h 3.0mph /  4.8km/h 20% 0.00in /  0mm 33.0 W/m2
07:46 55.0 °F /  12.8 °C 13.5 °F /  -10.3 °C 29.98in /  1015.1hPa ESE 0.9mph /  1.4km/h 2.0mph /  3.2km/h 19% 0.00in /  0mm 33.0 W/m2
07:52 56.8 °F /  13.8 °C 13.8 °F /  -10.1 °C 29.98in /  1015.1hPa Calm   3.0mph /  4.8km/h 18% 0.00in /  0mm 35.0 W/m2
07:59 58.5 °F /  14.7 °C 15.1 °F /  -9.4 °C 29.98in /  1015.1hPa NNE 0.9mph /  1.4km/h 3.0mph /  4.8km/h 18% 0.00in /  0mm 35.0 W/m2
08:05 60.1 °F /  15.6 °C 13.6 °F /  -10.2 °C 29.98in /  1015.1hPa NE 2.0mph /  3.2km/h 3.0mph /  4.8km/h 16% 0.00in /  0mm 37.0 W/m2
08:11 61.7 °F /  16.5 °C 13.6 °F /  -10.2 °C 29.98in /  1015.1hPa NNE 4.0mph /  6.4km/h 4.0mph /  6.4km/h 15% 0.00in /  0mm 39.0 W/m2
08:17 63.3 °F /  17.4 °C 13.3 °F /  -10.4 °C 29.98in /  1015.1hPa ESE 0.9mph /  1.4km/h 5.0mph /  8km/h 14% 0.00in /  0mm 39.0 W/m2
08:23 64.8 °F /  18.2 °C 12.7 °F /  -10.7 °C 29.98in /  1015.1hPa ESE 0.9mph /  1.4km/h 5.0mph /  8km/h 13% 0.00in /  0mm 40.0 W/m2
08:29 65.8 °F /  18.8 °C 13.6 °F /  -10.2 °C 29.98in /  1015.1hPa ENE 0.9mph /  1.4km/h 5.0mph /  8km/h 13% 0.00in /  0mm 42.0 W/m2
08:36 67.1 °F /  19.5 °C 12.7 °F /  -10.7 °C 29.98in /  1015.1hPa Calm   5.0mph /  8km/h 12% 0.00in /  0mm 114.0 W/m2
08:42 68.5 °F /  20.3 °C 13.8 °F /  -10.1 °C 29.98in /  1015.1hPa NE 2.9mph /  4.7km/h 6.0mph /  9.7km/h 12% 0.00in /  0mm 527.0 W/m2
08:48 70.5 °F /  21.4 °C 13.5 °F /  -10.3 °C 29.98in /  1015.1hPa NE 4.9mph /  7.9km/h 6.0mph /  9.7km/h 11% 0.00in /  0mm 548.0 W/m2
08:54 72.1 °F /  22.3 °C 10.2 °F /  -12.1 °C 29.98in /  1015.1hPa NNE 4.0mph /  6.4km/h 4.0mph /  6.4km/h 9% 0.00in /  0mm 566.0 W/m2
09:00 73.6 °F /  23.1 °C 11.3 °F /  -11.5 °C 29.98in /  1015.1hPa Calm   3.0mph /  4.8km/h 9% 0.00in /  0mm 585.0 W/m2
09:06 74.5 °F /  23.6 °C 9.3 °F /  -12.6 °C 29.98in /  1015.1hPa NNW 0.9mph /  1.4km/h 1.0mph /  1.6km/h 8% 0.00in /  0mm 603.0 W/m2
09:12 75.4 °F /  24.1 °C 7.0 °F /  -13.9 °C 29.98in /  1015.1hPa Calm   1.0mph /  1.6km/h 7% 0.00in /  0mm 624.0 W/m2
09:18 75.0 °F /  23.9 °C 6.8 °F /  -14 °C 29.98in /  1015.1hPa South 2.0mph /  3.2km/h 3.0mph /  4.8km/h 7% 0.00in /  0mm 642.0 W/m2
09:25 75.2 °F /  24 °C 6.8 °F /  -14 °C 29.98in /  1015.1hPa Calm   1.0mph /  1.6km/h 7% 0.00in /  0mm 659.0 W/m2
09:31 75.9 °F /  24.4 °C 7.3 °F /  -13.7 °C 29.98in /  1015.1hPa Calm   1.0mph /  1.6km/h 7% 0.00in /  0mm 670.0 W/m2
09:37 76.6 °F /  24.8 °C 7.9 °F /  -13.4 °C 29.98in /  1015.1hPa SE 2.0mph /  3.2km/h 3.0mph /  4.8km/h 7% 0.00in /  0mm 686.0 W/m2
09:43 77.4 °F /  25.2 °C 8.4 °F /  -13.1 °C 29.98in /  1015.1hPa Calm   3.0mph /  4.8km/h 7% 0.00in /  0mm 700.0 W/m2
09:49 78.3 °F /  25.7 °C 9.1 °F /  -12.7 °C 29.98in /  1015.1hPa Calm   5.0mph /  8km/h 7% 0.00in /  0mm 712.0 W/m2
09:55 79.0 °F /  26.1 °C 9.7 °F /  -12.4 °C 29.98in /  1015.1hPa Calm   1.0mph /  1.6km/h 7% 0.00in /  0mm 726.0 W/m2
10:01 79.5 °F /  26.4 °C 10.0 °F /  -12.2 °C 29.98in /  1015.1hPa ENE 2.9mph /  4.7km/h 6.0mph /  9.7km/h 7% 0.00in /  0mm 737.0 W/m2
10:07 79.9 °F /  26.6 °C 10.2 °F /  -12.1 °C 29.97in /  1014.8hPa Calm   4.0mph /  6.4km/h 7% 0.00in /  0mm 747.0 W/m2
10:13 80.1 °F /  26.7 °C 10.4 °F /  -12 °C 29.97in /  1014.8hPa Calm   4.0mph /  6.4km/h 7% 0.00in /  0mm 759.0 W/m2
10:20 80.2 °F /  26.8 °C 10.6 °F /  -11.9 °C 29.97in /  1014.8hPa NW 0.9mph /  1.4km/h 6.0mph /  9.7km/h 7% 0.00in /  0mm 770.0 W/m2
10:26 80.4 °F /  26.9 °C 13.6 °F /  -10.2 °C 29.97in /  1014.8hPa Calm   5.0mph /  8km/h 8% 0.00in /  0mm 780.0 W/m2
10:32 80.8 °F /  27.1 °C 10.9 °F /  -11.7 °C 29.96in /  1014.4hPa Calm   3.0mph /  4.8km/h 7% 0.00in /  0mm 788.0 W/m2
10:38 81.3 °F /  27.4 °C 14.4 °F /  -9.8 °C 29.96in /  1014.4hPa NNW 4.0mph /  6.4km/h 7.0mph /  11.3km/h 8% 0.00in /  0mm 798.0 W/m2
10:44 81.1 °F /  27.3 °C 14.2 °F /  -9.9 °C 29.96in /  1014.4hPa NNW 4.9mph /  7.9km/h 6.0mph /  9.7km/h 8% 0.00in /  0mm 805.0 W/m2
10:50 81.1 °F /  27.3 °C 11.3 °F /  -11.5 °C 29.96in /  1014.4hPa SW 0.9mph /  1.4km/h 6.0mph /  9.7km/h 7% 0.00in /  0mm 812.0 W/m2
10:56 81.1 °F /  27.3 °C 11.3 °F /  -11.5 °C 29.95in /  1014.1hPa WSW 4.0mph /  6.4km/h 5.0mph /  8km/h 7% 0.00in /  0mm 817.0 W/m2
11:02 81.0 °F /  27.2 °C 14.2 °F /  -9.9 °C 29.95in /  1014.1hPa WSW 2.9mph /  4.7km/h 7.0mph /  11.3km/h 8% 0.00in /  0mm 823.0 W/m2
11:08 81.0 °F /  27.2 °C 14.2 °F /  -9.9 °C 29.95in /  1014.1hPa West 2.0mph /  3.2km/h 6.0mph /  9.7km/h 8% 0.00in /  0mm 824.0 W/m2
11:14 81.0 °F /  27.2 °C 14.2 °F /  -9.9 °C 29.94in /  1013.8hPa WSW 2.9mph /  4.7km/h 4.0mph /  6.4km/h 8% 0.00in /  0mm 830.0 W/m2
11:21 81.0 °F /  27.2 °C 14.2 °F /  -9.9 °C 29.94in /  1013.8hPa Calm   5.0mph /  8km/h 8% 0.00in /  0mm 831.0 W/m2
11:27 81.7 °F /  27.6 °C 14.7 °F /  -9.6 °C 29.94in /  1013.8hPa NNW 2.0mph /  3.2km/h 7.0mph /  11.3km/h 8% 0.00in /  0mm 830.0 W/m2
11:33 81.9 °F /  27.7 °C 14.7 °F /  -9.6 °C 29.94in /  1013.8hPa NNW 6.9mph /  11.1km/h 14.0mph /  22.5km/h 8% 0.00in /  0mm 842.0 W/m2
11:39 81.9 °F /  27.7 °C 14.7 °F /  -9.6 °C 29.94in /  1013.8hPa NNW 0.9mph /  1.4km/h 8.0mph /  12.9km/h 8% 0.00in /  0mm 837.0 W/m2
11:45 82.2 °F /  27.9 °C 15.1 °F /  -9.4 °C 29.93in /  1013.4hPa NE 10.1mph /  16.3km/h 10.1mph /  16.3km/h 8% 0.00in /  0mm 837.0 W/m2
11:51 82.0 °F /  27.8 °C 14.9 °F /  -9.5 °C 29.93in /  1013.4hPa West 2.0mph /  3.2km/h 9.0mph /  14.5km/h 8% 0.00in /  0mm 831.0 W/m2
11:57 82.4 °F /  28 °C 15.3 °F /  -9.3 °C 29.93in /  1013.4hPa WNW 2.9mph /  4.7km/h 7.0mph /  11.3km/h 8% 0.00in /  0mm 837.0 W/m2
12:03 82.9 °F /  28.3 °C 12.6 °F /  -10.8 °C 29.93in /  1013.4hPa NW 6.9mph /  11.1km/h 9.0mph /  14.5km/h 7% 0.00in /  0mm 837.0 W/m2
12:10 83.1 °F /  28.4 °C 12.7 °F /  -10.7 °C 29.92in /  1013.1hPa Calm   6.0mph /  9.7km/h 7% 0.00in /  0mm 833.0 W/m2
12:16 83.1 °F /  28.4 °C 12.7 °F /  -10.7 °C 29.92in /  1013.1hPa SW 2.0mph /  3.2km/h 5.0mph /  8km/h 7% 0.00in /  0mm 831.0 W/m2
12:22 83.5 °F /  28.6 °C 12.9 °F /  -10.6 °C 29.92in /  1013.1hPa WSW 2.9mph /  4.7km/h 10.0mph /  16.1km/h 7% 0.00in /  0mm 824.0 W/m2
12:28 83.5 °F /  28.6 °C 12.9 °F /  -10.6 °C 29.91in /  1012.8hPa NNW 4.0mph /  6.4km/h 5.0mph /  8km/h 7% 0.00in /  0mm 824.0 W/m2
12:34 83.5 °F /  28.6 °C 12.9 °F /  -10.6 °C 29.91in /  1012.8hPa NNW 4.0mph /  6.4km/h 11.0mph /  17.7km/h 7% 0.00in /  0mm 814.0 W/m2
12:40 83.1 °F /  28.4 °C 12.7 °F /  -10.7 °C 29.91in /  1012.8hPa NNW 8.9mph /  14.3km/h 9.0mph /  14.5km/h 7% 0.00in /  0mm 807.0 W/m2
12:46 83.5 °F /  28.6 °C 12.9 °F /  -10.6 °C 29.90in /  1012.4hPa NW 4.9mph /  7.9km/h 8.0mph /  12.9km/h 7% 0.00in /  0mm 802.0 W/m2
12:52 83.8 °F /  28.8 °C 13.3 °F /  -10.4 °C 29.91in /  1012.8hPa Calm   9.0mph /  14.5km/h 7% 0.00in /  0mm 795.0 W/m2
12:58 83.8 °F /  28.8 °C 13.3 °F /  -10.4 °C 29.90in /  1012.4hPa NW 0.9mph /  1.4km/h 13.0mph /  20.9km/h 7% 0.00in /  0mm 789.0 W/m2
13:05 84.2 °F /  29 °C 13.5 °F /  -10.3 °C 29.90in /  1012.4hPa NW 4.0mph /  6.4km/h 9.0mph /  14.5km/h 7% 0.00in /  0mm 773.0 W/m2
13:11 84.0 °F /  28.9 °C 13.3 °F /  -10.4 °C 29.89in /  1012.1hPa Calm   8.0mph /  12.9km/h 7% 0.00in /  0mm 765.0 W/m2
13:17 84.0 °F /  28.9 °C 13.3 °F /  -10.4 °C 29.90in /  1012.4hPa NNW 2.9mph /  4.7km/h 12.0mph /  19.3km/h 7% 0.00in /  0mm 759.0 W/m2
13:23 84.0 °F /  28.9 °C 13.3 °F /  -10.4 °C 29.89in /  1012.1hPa NNW 4.0mph /  6.4km/h 6.0mph /  9.7km/h 7% 0.00in /  0mm 749.0 W/m2
13:29 84.0 °F /  28.9 °C 13.3 °F /  -10.4 °C 29.89in /  1012.1hPa WNW 8.1mph /  13km/h 8.1mph /  13km/h 7% 0.00in /  0mm 740.0 W/m2
13:35 84.0 °F /  28.9 °C 13.3 °F /  -10.4 °C 29.89in /  1012.1hPa West 0.9mph /  1.4km/h 6.0mph /  9.7km/h 7% 0.00in /  0mm 728.0 W/m2
13:41 84.2 °F /  29 °C 13.5 °F /  -10.3 °C 29.89in /  1012.1hPa Calm   5.0mph /  8km/h 7% 0.00in /  0mm 717.0 W/m2
13:47 83.8 °F /  28.8 °C 13.3 °F /  -10.4 °C 29.89in /  1012.1hPa West 2.9mph /  4.7km/h 5.0mph /  8km/h 7% 0.00in /  0mm 701.0 W/m2
13:54 84.0 °F /  28.9 °C 13.3 °F /  -10.4 °C 29.89in /  1012.1hPa WNW 2.0mph /  3.2km/h 5.0mph /  8km/h 7% 0.00in /  0mm 686.0 W/m2
14:00 83.8 °F /  28.8 °C 13.3 °F /  -10.4 °C 29.88in /  1011.7hPa WNW 0.9mph /  1.4km/h 6.0mph /  9.7km/h 7% 0.00in /  0mm 675.0 W/m2
14:06 84.0 °F /  28.9 °C 13.3 °F /  -10.4 °C 29.88in /  1011.7hPa North 2.0mph /  3.2km/h 13.0mph /  20.9km/h 7% 0.00in /  0mm 657.0 W/m2
14:12 84.4 °F /  29.1 °C 13.6 °F /  -10.2 °C 29.88in /  1011.7hPa WSW 0.9mph /  1.4km/h 5.0mph /  8km/h 7% 0.00in /  0mm 643.0 W/m2
14:18 84.6 °F /  29.2 °C 13.6 °F /  -10.2 °C 29.88in /  1011.7hPa WNW 4.0mph /  6.4km/h 7.0mph /  11.3km/h 7% 0.00in /  0mm 626.0 W/m2
14:24 84.7 °F /  29.3 °C 10.4 °F /  -12 °C 29.88in /  1011.7hPa WNW 0.9mph /  1.4km/h 7.0mph /  11.3km/h 6% 0.00in /  0mm 612.0 W/m2
14:30 84.9 °F /  29.4 °C 10.6 °F /  -11.9 °C 29.87in /  1011.4hPa NNW 4.9mph /  7.9km/h 8.0mph /  12.9km/h 6% 0.00in /  0mm 594.0 W/m2
14:37 84.7 °F /  29.3 °C 10.4 °F /  -12 °C 29.87in /  1011.4hPa West 2.0mph /  3.2km/h 8.0mph /  12.9km/h 6% 0.00in /  0mm 578.0 W/m2
14:43 84.6 °F /  29.2 °C 10.2 °F /  -12.1 °C 29.87in /  1011.4hPa NNW 4.0mph /  6.4km/h 8.0mph /  12.9km/h 6% 0.00in /  0mm 561.0 W/m2
14:49 84.4 °F /  29.1 °C 10.0 °F /  -12.2 °C 29.87in /  1011.4hPa North 6.9mph /  11.1km/h 9.0mph /  14.5km/h 6% 0.00in /  0mm 538.0 W/m2
14:55 84.0 °F /  28.9 °C 9.9 °F /  -12.3 °C 29.87in /  1011.4hPa North 2.9mph /  4.7km/h 7.0mph /  11.3km/h 6% 0.00in /  0mm 517.0 W/m2
15:01 84.0 °F /  28.9 °C 13.3 °F /  -10.4 °C 29.87in /  1011.4hPa WSW 2.9mph /  4.7km/h 9.0mph /  14.5km/h 7% 0.00in /  0mm 497.0 W/m2
15:07 84.6 °F /  29.2 °C 13.6 °F /  -10.2 °C 29.87in /  1011.4hPa West 0.9mph /  1.4km/h 5.0mph /  8km/h 7% 0.00in /  0mm 482.0 W/m2
15:13 84.9 °F /  29.4 °C 10.6 °F /  -11.9 °C 29.87in /  1011.4hPa North 4.0mph /  6.4km/h 11.0mph /  17.7km/h 6% 0.00in /  0mm 459.0 W/m2
15:19 84.9 °F /  29.4 °C 14.0 °F /  -10 °C 29.87in /  1011.4hPa WSW 2.9mph /  4.7km/h 7.0mph /  11.3km/h 7% 0.00in /  0mm 439.0 W/m2
15:25 84.7 °F /  29.3 °C 10.4 °F /  -12 °C 29.87in /  1011.4hPa NNW 2.0mph /  3.2km/h 3.0mph /  4.8km/h 6% 0.00in /  0mm 418.0 W/m2
15:32 84.7 °F /  29.3 °C 13.8 °F /  -10.1 °C 29.87in /  1011.4hPa Calm   5.0mph /  8km/h 7% 0.00in /  0mm 397.0 W/m2
15:38 84.4 °F /  29.1 °C 13.6 °F /  -10.2 °C 29.87in /  1011.4hPa NNW 0.9mph /  1.4km/h 5.0mph /  8km/h 7% 0.00in /  0mm 376.0 W/m2
15:44 84.4 °F /  29.1 °C 10.0 °F /  -12.2 °C 29.87in /  1011.4hPa NNW 0.9mph /  1.4km/h 8.0mph /  12.9km/h 6% 0.00in /  0mm 357.0 W/m2
15:50 84.0 °F /  28.9 °C 13.3 °F /  -10.4 °C 29.87in /  1011.4hPa West 2.0mph /  3.2km/h 7.0mph /  11.3km/h 7% 0.00in /  0mm 334.0 W/m2
15:56 83.8 °F /  28.8 °C 13.3 °F /  -10.4 °C 29.87in /  1011.4hPa NNE 2.0mph /  3.2km/h 6.0mph /  9.7km/h 7% 0.00in /  0mm 311.0 W/m2
16:02 83.3 °F /  28.5 °C 12.7 °F /  -10.7 °C 29.87in /  1011.4hPa NNW 4.0mph /  6.4km/h 8.0mph /  12.9km/h 7% 0.00in /  0mm 287.0 W/m2
16:08 82.9 °F /  28.3 °C 12.6 °F /  -10.8 °C 29.87in /  1011.4hPa Calm   3.0mph /  4.8km/h 7% 0.00in /  0mm 262.0 W/m2
16:14 82.8 °F /  28.2 °C 12.4 °F /  -10.9 °C 29.87in /  1011.4hPa Calm   3.0mph /  4.8km/h 7% 0.00in /  0mm 54.0 W/m2
16:21 82.9 °F /  28.3 °C 12.6 °F /  -10.8 °C 29.87in /  1011.4hPa Calm   3.0mph /  4.8km/h 7% 0.00in /  0mm 53.0 W/m2
16:27 83.1 °F /  28.4 °C 15.8 °F /  -9 °C 29.87in /  1011.4hPa Calm   3.0mph /  4.8km/h 8% 0.00in /  0mm 109.0 W/m2
16:33 82.6 °F /  28.1 °C 15.3 °F /  -9.3 °C 29.88in /  1011.7hPa NW 0.9mph /  1.4km/h 8.0mph /  12.9km/h 8% 0.00in /  0mm 98.0 W/m2
16:39 81.9 °F /  27.7 °C 14.7 °F /  -9.6 °C 29.88in /  1011.7hPa NNE 2.9mph /  4.7km/h 7.0mph /  11.3km/h 8% 0.00in /  0mm 54.0 W/m2
16:45 81.1 °F /  27.3 °C 14.2 °F /  -9.9 °C 29.88in /  1011.7hPa NNW 2.9mph /  4.7km/h 7.0mph /  11.3km/h 8% 0.00in /  0mm 84.0 W/m2
16:51 80.8 °F /  27.1 °C 14.0 °F /  -10 °C 29.88in /  1011.7hPa NNW 0.9mph /  1.4km/h 4.0mph /  6.4km/h 8% 0.00in /  0mm 58.0 W/m2
16:57 80.4 °F /  26.9 °C 13.6 °F /  -10.2 °C 29.88in /  1011.7hPa Calm   2.0mph /  3.2km/h 8% 0.00in /  0mm 40.0 W/m2
17:03 80.1 °F /  26.7 °C 13.5 °F /  -10.3 °C 29.88in /  1011.7hPa North 0.9mph /  1.4km/h 5.0mph /  8km/h 8% 0.00in /  0mm 32.0 W/m2
17:09 79.5 °F /  26.4 °C 15.8 °F /  -9 °C 29.88in /  1011.7hPa NNW 0.9mph /  1.4km/h 5.0mph /  8km/h 9% 0.00in /  0mm 25.0 W/m2
17:16 79.2 °F /  26.2 °C 12.7 °F /  -10.7 °C 29.88in /  1011.7hPa North 2.0mph /  3.2km/h 7.0mph /  11.3km/h 8% 0.00in /  0mm 19.0 W/m2
17:22 78.6 °F /  25.9 °C 15.1 °F /  -9.4 °C 29.89in /  1012.1hPa North 0.9mph /  1.4km/h 4.0mph /  6.4km/h 9% 0.00in /  0mm 16.0 W/m2
17:28 78.4 °F /  25.8 °C 14.9 °F /  -9.5 °C 29.89in /  1012.1hPa Calm     9% 0.00in /  0mm 11.0 W/m2
17:34 77.9 °F /  25.5 °C 16.9 °F /  -8.4 °C 29.89in /  1012.1hPa Calm     10% 0.00in /  0mm 7.0 W/m2
17:40 77.2 °F /  25.1 °C 16.3 °F /  -8.7 °C 29.89in /  1012.1hPa Calm     10% 0.00in /  0mm 0.0 W/m2
17:46 76.3 °F /  24.6 °C 18.0 °F /  -7.8 °C 29.89in /  1012.1hPa Calm     11% 0.00in /  0mm 0.0 W/m2
17:53 75.6 °F /  24.2 °C 17.4 °F /  -8.1 °C 29.89in /  1012.1hPa Calm     11% 0.00in /  0mm 0.0 W/m2
17:59 74.5 °F /  23.6 °C 16.5 °F /  -8.6 °C 29.89in /  1012.1hPa Calm     11% 0.00in /  0mm 0.0 W/m2
18:05 73.4 °F /  23 °C 17.8 °F /  -7.9 °C 29.90in /  1012.4hPa Calm     12% 0.00in /  0mm 0.0 W/m2
18:11 72.3 °F /  22.4 °C 16.9 °F /  -8.4 °C 29.90in /  1012.4hPa Calm     12% 0.00in /  0mm 0.0 W/m2
18:17 71.6 °F /  22 °C 16.3 °F /  -8.7 °C 29.90in /  1012.4hPa Calm     12% 0.00in /  0mm 0.0 W/m2
18:23 70.9 °F /  21.6 °C 17.6 °F /  -8 °C 29.90in /  1012.4hPa Calm     13% 0.00in /  0mm 0.0 W/m2
18:29 70.2 °F /  21.2 °C 17.1 °F /  -8.3 °C 29.91in /  1012.8hPa Calm     13% 0.00in /  0mm 0.0 W/m2
18:36 69.3 °F /  20.7 °C 18.0 °F /  -7.8 °C 29.91in /  1012.8hPa Calm     14% 0.00in /  0mm 0.0 W/m2
18:42 68.4 °F /  20.2 °C 17.2 °F /  -8.2 °C 29.91in /  1012.8hPa Calm     14% 0.00in /  0mm 0.0 W/m2
18:48 67.6 °F /  19.8 °C 16.7 °F /  -8.5 °C 29.91in /  1012.8hPa Calm     14% 0.00in /  0mm 0.0 W/m2
18:54 66.9 °F /  19.4 °C 16.2 °F /  -8.8 °C 29.91in /  1012.8hPa Calm     14% 0.00in /  0mm 0.0 W/m2
19:00 66.4 °F /  19.1 °C 15.8 °F /  -9 °C 29.92in /  1013.1hPa Calm   1.0mph /  1.6km/h 14% 0.00in /  0mm 0.0 W/m2
19:06 65.7 °F /  18.7 °C 16.7 °F /  -8.5 °C 29.92in /  1013.1hPa Calm     15% 0.00in /  0mm 0.0 W/m2
19:12 64.9 °F /  18.3 °C 16.2 °F /  -8.8 °C 29.92in /  1013.1hPa Calm     15% 0.00in /  0mm 0.0 W/m2
19:19 64.4 °F /  18 °C 15.8 °F /  -9 °C 29.92in /  1013.1hPa NW 0.9mph /  1.4km/h 1.0mph /  1.6km/h 15% 0.00in /  0mm 0.0 W/m2
19:25 63.9 °F /  17.7 °C 15.3 °F /  -9.3 °C 29.92in /  1013.1hPa Calm     15% 0.00in /  0mm 0.0 W/m2
19:31 63.3 °F /  17.4 °C 16.3 °F /  -8.7 °C 29.93in /  1013.4hPa Calm     16% 0.00in /  0mm 0.0 W/m2
19:37 62.8 °F /  17.1 °C 16.0 °F /  -8.9 °C 29.93in /  1013.4hPa Calm     16% 0.00in /  0mm 0.0 W/m2
19:43 62.4 °F /  16.9 °C 15.6 °F /  -9.1 °C 29.93in /  1013.4hPa ENE 0.9mph /  1.4km/h 3.0mph /  4.8km/h 16% 0.00in /  0mm 0.0 W/m2
19:49 62.1 °F /  16.7 °C 15.3 °F /  -9.3 °C 29.93in /  1013.4hPa ESE 0.9mph /  1.4km/h 1.0mph /  1.6km/h 16% 0.00in /  0mm 0.0 W/m2
19:55 62.1 °F /  16.7 °C 13.8 °F /  -10.1 °C 29.93in /  1013.4hPa Calm   1.0mph /  1.6km/h 15% 0.00in /  0mm 0.0 W/m2
20:01 62.1 °F /  16.7 °C 15.3 °F /  -9.3 °C 29.93in /  1013.4hPa Calm   2.0mph /  3.2km/h 16% 0.00in /  0mm 0.0 W/m2
20:07 62.2 °F /  16.8 °C 15.4 °F /  -9.2 °C 29.93in /  1013.4hPa ENE 0.9mph /  1.4km/h 4.0mph /  6.4km/h 16% 0.00in /  0mm 0.0 W/m2
20:14 62.2 °F /  16.8 °C 14.0 °F /  -10 °C 29.93in /  1013.4hPa Calm   2.0mph /  3.2km/h 15% 0.00in /  0mm 0.0 W/m2
20:20 62.2 °F /  16.8 °C 15.4 °F /  -9.2 °C 29.93in /  1013.4hPa Calm   2.0mph /  3.2km/h 16% 0.00in /  0mm 0.0 W/m2
20:26 62.1 °F /  16.7 °C 15.3 °F /  -9.3 °C 29.94in /  1013.8hPa Calm     16% 0.00in /  0mm 0.0 W/m2
20:32 61.9 °F /  16.6 °C 15.3 °F /  -9.3 °C 29.94in /  1013.8hPa Calm   1.0mph /  1.6km/h 16% 0.00in /  0mm 0.0 W/m2
20:38 61.5 °F /  16.4 °C 14.9 °F /  -9.5 °C 29.94in /  1013.8hPa ENE 4.0mph /  6.4km/h 4.0mph /  6.4km/h 16% 0.00in /  0mm 0.0 W/m2
20:44 61.5 °F /  16.4 °C 14.9 °F /  -9.5 °C 29.94in /  1013.8hPa East 0.9mph /  1.4km/h 4.0mph /  6.4km/h 16% 0.00in /  0mm 0.0 W/m2
20:51 61.3 °F /  16.3 °C 14.7 °F /  -9.6 °C 29.95in /  1014.1hPa Calm   2.0mph /  3.2km/h 16% 0.00in /  0mm 0.0 W/m2
20:59 61.5 °F /  16.4 °C 14.9 °F /  -9.5 °C 29.95in /  1014.1hPa Calm   1.0mph /  1.6km/h 16% 0.00in /  0mm 0.0 W/m2
21:05 61.5 °F /  16.4 °C 16.3 °F /  -8.7 °C 29.95in /  1014.1hPa Calm     17% 0.00in /  0mm 0.0 W/m2
21:11 61.3 °F /  16.3 °C 16.2 °F /  -8.8 °C 29.95in /  1014.1hPa Calm     17% 0.00in /  0mm 0.0 W/m2
21:17 61.0 °F /  16.1 °C 15.8 °F /  -9 °C 29.95in /  1014.1hPa Calm     17% 0.00in /  0mm 0.0 W/m2
21:23 60.4 °F /  15.8 °C 15.4 °F /  -9.2 °C 29.95in /  1014.1hPa Calm   1.0mph /  1.6km/h 17% 0.00in /  0mm 0.0 W/m2
21:29 60.1 °F /  15.6 °C 15.1 °F /  -9.4 °C 29.95in /  1014.1hPa Calm     17% 0.00in /  0mm 0.0 W/m2
21:36 59.5 °F /  15.3 °C 14.7 °F /  -9.6 °C 29.95in /  1014.1hPa Calm     17% 0.00in /  0mm 0.0 W/m2
21:42 59.0 °F /  15 °C 14.2 °F /  -9.9 °C 29.95in /  1014.1hPa Calm     17% 0.00in /  0mm 0.0 W/m2
21:48 58.5 °F /  14.7 °C 16.3 °F /  -8.7 °C 29.96in /  1014.4hPa Calm     19% 0.00in /  0mm 0.0 W/m2
21:54 58.1 °F /  14.5 °C 14.7 °F /  -9.6 °C 29.95in /  1014.1hPa Calm   3.0mph /  4.8km/h 18% 0.00in /  0mm 0.0 W/m2
22:00 57.7 °F /  14.3 °C 14.5 °F /  -9.7 °C 29.95in /  1014.1hPa Calm   2.0mph /  3.2km/h 18% 0.00in /  0mm 0.0 W/m2
22:06 57.9 °F /  14.4 °C 14.7 °F /  -9.6 °C 29.95in /  1014.1hPa Calm   2.0mph /  3.2km/h 18% 0.00in /  0mm 0.0 W/m2
22:12 58.5 °F /  14.7 °C 15.1 °F /  -9.4 °C 29.95in /  1014.1hPa Calm   1.0mph /  1.6km/h 18% 0.00in /  0mm 0.0 W/m2
22:18 58.6 °F /  14.8 °C 15.3 °F /  -9.3 °C 29.95in /  1014.1hPa Calm   3.0mph /  4.8km/h 18% 0.00in /  0mm 0.0 W/m2
22:25 58.6 °F /  14.8 °C 15.3 °F /  -9.3 °C 29.95in /  1014.1hPa Calm   1.0mph /  1.6km/h 18% 0.00in /  0mm 0.0 W/m2
22:31 58.5 °F /  14.7 °C 15.1 °F /  -9.4 °C 29.95in /  1014.1hPa Calm   2.0mph /  3.2km/h 18% 0.00in /  0mm 0.0 W/m2
22:37 57.9 °F /  14.4 °C 14.7 °F /  -9.6 °C 29.95in /  1014.1hPa Calm   1.0mph /  1.6km/h 18% 0.00in /  0mm 0.0 W/m2
22:43 57.7 °F /  14.3 °C 15.8 °F /  -9 °C 29.95in /  1014.1hPa Calm     19% 0.00in /  0mm 0.0 W/m2
22:49 57.4 °F /  14.1 °C 15.4 °F /  -9.2 °C 29.95in /  1014.1hPa Calm     19% 0.00in /  0mm 0.0 W/m2
22:55 57.0 °F /  13.9 °C 15.1 °F /  -9.4 °C 29.94in /  1013.8hPa Calm     19% 0.00in /  0mm 0.0 W/m2
23:01 56.7 °F /  13.7 °C 14.9 °F /  -9.5 °C 29.94in /  1013.8hPa Calm   2.0mph /  3.2km/h 19% 0.00in /  0mm 0.0 W/m2
23:07 56.5 °F /  13.6 °C 14.7 °F /  -9.6 °C 29.94in /  1013.8hPa ESE 2.0mph /  3.2km/h 2.0mph /  3.2km/h 19% 0.00in /  0mm 0.0 W/m2
23:13 56.1 °F /  13.4 °C 14.4 °F /  -9.8 °C 29.94in /  1013.8hPa Calm   1.0mph /  1.6km/h 19% 0.00in /  0mm 0.0 W/m2
23:19 56.1 °F /  13.4 °C 14.4 °F /  -9.8 °C 29.94in /  1013.8hPa East 0.9mph /  1.4km/h 4.0mph /  6.4km/h 19% 0.00in /  0mm 0.0 W/m2
23:25 56.1 °F /  13.4 °C 14.4 °F /  -9.8 °C 29.94in /  1013.8hPa Calm   3.0mph /  4.8km/h 19% 0.00in /  0mm 0.0 W/m2
23:32 56.3 °F /  13.5 °C 14.5 °F /  -9.7 °C 29.94in /  1013.8hPa Calm   1.0mph /  1.6km/h 19% 0.00in /  0mm 0.0 W/m2
23:38 56.3 °F /  13.5 °C 15.8 °F /  -9 °C 29.94in /  1013.8hPa Calm   4.0mph /  6.4km/h 20% 0.00in /  0mm 0.0 W/m2
23:44 56.3 °F /  13.5 °C 14.5 °F /  -9.7 °C 29.94in /  1013.8hPa East 2.9mph /  4.7km/h 5.0mph /  8km/h 19% 0.00in /  0mm 0.0 W/m2
23:50 56.5 °F /  13.6 °C 14.7 °F /  -9.6 °C 29.94in /  1013.8hPa ENE 0.9mph /  1.4km/h 6.0mph /  9.7km/h 19% 0.00in /  0mm 0.0 W/m2
23:56 57.0 °F /  13.9 °C 15.1 °F /  -9.4 °C 29.94in /  1013.8hPa East 0.9mph /  1.4km/h 5.0mph /  8km/h 19% 0.00in /  0mm 0.0 W/m2
Olympia, Windhoek, Namibia
Compliments of Weather Underground - 3 mb